sensor_id;sensor_type;location;lat;lon;timestamp;temperature;humidity
11188;DHT22;5650;52.700;7.306;2023-01-15T00:01:42;7.50;99.90
11188;DHT22;5650;52.700;7.306;2023-01-15T00:04:10;7.50;99.90
11188;DHT22;5650;52.700;7.306;2023-01-15T00:06:39;7.50;99.90
11188;DHT22;5650;52.700;7.306;2023-01-15T00:09:08;7.50;99.90
11188;DHT22;5650;52.700;7.306;2023-01-15T00:11:44;7.50;99.90
11188;DHT22;5650;52.700;7.306;2023-01-15T00:14:11;7.50;99.90
11188;DHT22;5650;52.700;7.306;2023-01-15T00:16:44;7.50;99.90
11188;DHT22;5650;52.700;7.306;2023-01-15T00:19:23;7.50;99.90
11188;DHT22;5650;52.700;7.306;2023-01-15T00:21:50;7.50;99.90
11188;DHT22;5650;52.700;7.306;2023-01-15T00:24:33;7.50;99.90
11188;DHT22;5650;52.700;7.306;2023-01-15T00:27:19;7.50;99.90
11188;DHT22;5650;52.700;7.306;2023-01-15T00:30:06;7.50;99.90
11188;DHT22;5650;52.700;7.306;2023-01-15T00:32:33;7.50;99.90
11188;DHT22;5650;52.700;7.306;2023-01-15T00:35:15;7.50;99.90
11188;DHT22;5650;52.700;7.306;2023-01-15T00:37:43;7.50;99.90
11188;DHT22;5650;52.700;7.306;2023-01-15T00:40:18;7.50;99.90
11188;DHT22;5650;52.700;7.306;2023-01-15T00:42:49;7.50;99.90
11188;DHT22;5650;52.700;7.306;2023-01-15T00:45:28;7.50;99.90
11188;DHT22;5650;52.700;7.306;2023-01-15T00:47:55;7.50;99.90
11188;DHT22;5650;52.700;7.306;2023-01-15T00:50:31;7.50;99.90
11188;DHT22;5650;52.700;7.306;2023-01-15T00:52:58;7.50;99.90
11188;DHT22;5650;52.700;7.306;2023-01-15T00:55:28;7.50;99.90
11188;DHT22;5650;52.700;7.306;2023-01-15T00:58:00;7.50;99.90
11188;DHT22;5650;52.700;7.306;2023-01-15T01:00:27;7.50;99.90
11188;DHT22;5650;52.700;7.306;2023-01-15T01:02:55;7.40;99.90
11188;DHT22;5650;52.700;7.306;2023-01-15T01:05:29;7.50;99.90
11188;DHT22;5650;52.700;7.306;2023-01-15T01:07:56;7.40;99.90
11188;DHT22;5650;52.700;7.306;2023-01-15T01:10:30;7.50;99.90
11188;DHT22;5650;52.700;7.306;2023-01-15T01:13:02;7.50;99.90
11188;DHT22;5650;52.700;7.306;2023-01-15T01:15:32;7.50;99.90
11188;DHT22;5650;52.700;7.306;2023-01-15T01:18:03;7.50;99.90
11188;DHT22;5650;52.700;7.306;2023-01-15T01:20:31;7.50;99.90
11188;DHT22;5650;52.700;7.306;2023-01-15T01:22:59;7.50;99.90
11188;DHT22;5650;52.700;7.306;2023-01-15T01:25:26;7.50;99.90
11188;DHT22;5650;52.700;7.306;2023-01-15T01:27:53;7.40;99.90
11188;DHT22;5650;52.700;7.306;2023-01-15T01:30:22;7.40;99.90
11188;DHT22;5650;52.700;7.306;2023-01-15T01:32:49;7.40;99.90
11188;DHT22;5650;52.700;7.306;2023-01-15T01:35:16;7.40;99.90
11188;DHT22;5650;52.700;7.306;2023-01-15T01:37:50;7.40;99.90
11188;DHT22;5650;52.700;7.306;2023-01-15T01:40:20;7.40;99.90
11188;DHT22;5650;52.700;7.306;2023-01-15T01:42:51;7.40;99.90
11188;DHT22;5650;52.700;7.306;2023-01-15T01:45:23;7.40;99.90
11188;DHT22;5650;52.700;7.306;2023-01-15T01:47:53;7.40;99.90
11188;DHT22;5650;52.700;7.306;2023-01-15T01:50:21;7.40;99.90
11188;DHT22;5650;52.700;7.306;2023-01-15T01:52:54;7.40;99.90
11188;DHT22;5650;52.700;7.306;2023-01-15T01:55:24;7.40;99.90
11188;DHT22;5650;52.700;7.306;2023-01-15T01:57:55;7.40;99.90
11188;DHT22;5650;52.700;7.306;2023-01-15T02:00:34;7.40;99.90
11188;DHT22;5650;52.700;7.306;2023-01-15T02:03:04;7.40;99.90
11188;DHT22;5650;52.700;7.306;2023-01-15T02:05:46;7.40;99.90
11188;DHT22;5650;52.700;7.306;2023-01-15T02:08:17;7.40;99.90
11188;DHT22;5650;52.700;7.306;2023-01-15T02:11:06;7.40;99.90
11188;DHT22;5650;52.700;7.306;2023-01-15T02:13:36;7.40;99.90
11188;DHT22;5650;52.700;7.306;2023-01-15T02:16:10;7.40;99.90
11188;DHT22;5650;52.700;7.306;2023-01-15T02:18:53;7.40;99.90
11188;DHT22;5650;52.700;7.306;2023-01-15T02:21:28;7.40;99.90
11188;DHT22;5650;52.700;7.306;2023-01-15T02:24:12;7.40;99.90
11188;DHT22;5650;52.700;7.306;2023-01-15T02:29:54;7.40;99.90
11188;DHT22;5650;52.700;7.306;2023-01-15T02:32:29;7.40;99.90
11188;DHT22;5650;52.700;7.306;2023-01-15T02:35:07;7.40;99.90
11188;DHT22;5650;52.700;7.306;2023-01-15T02:37:50;7.40;99.90
11188;DHT22;5650;52.700;7.306;2023-01-15T02:40:19;7.40;99.90
11188;DHT22;5650;52.700;7.306;2023-01-15T02:42:54;7.30;99.90
11188;DHT22;5650;52.700;7.306;2023-01-15T02:45:26;7.40;99.90
11188;DHT22;5650;52.700;7.306;2023-01-15T02:48:01;7.40;99.90
11188;DHT22;5650;52.700;7.306;2023-01-15T02:50:33;7.40;99.90
11188;DHT22;5650;52.700;7.306;2023-01-15T02:53:08;7.40;99.90
11188;DHT22;5650;52.700;7.306;2023-01-15T02:55:43;7.40;99.90
11188;DHT22;5650;52.700;7.306;2023-01-15T02:58:18;7.30;99.90
11188;DHT22;5650;52.700;7.306;2023-01-15T03:00:48;7.30;99.90
11188;DHT22;5650;52.700;7.306;2023-01-15T03:03:24;7.30;99.90
11188;DHT22;5650;52.700;7.306;2023-01-15T03:08:41;7.30;99.90
11188;DHT22;5650;52.700;7.306;2023-01-15T03:11:13;7.30;99.90
11188;DHT22;5650;52.700;7.306;2023-01-15T03:13:47;7.30;99.90
11188;DHT22;5650;52.700;7.306;2023-01-15T03:16:21;7.30;99.90
11188;DHT22;5650;52.700;7.306;2023-01-15T03:19:26;7.30;99.90
11188;DHT22;5650;52.700;7.306;2023-01-15T03:22:01;7.30;99.90
11188;DHT22;5650;52.700;7.306;2023-01-15T03:24:32;7.30;99.90
11188;DHT22;5650;52.700;7.306;2023-01-15T03:27:11;7.30;99.90
11188;DHT22;5650;52.700;7.306;2023-01-15T03:29:46;7.30;99.90
11188;DHT22;5650;52.700;7.306;2023-01-15T03:32:28;7.30;99.90
11188;DHT22;5650;52.700;7.306;2023-01-15T03:35:01;7.20;99.90
11188;DHT22;5650;52.700;7.306;2023-01-15T03:37:36;7.20;99.90
11188;DHT22;5650;52.700;7.306;2023-01-15T03:40:04;7.20;99.90
11188;DHT22;5650;52.700;7.306;2023-01-15T03:42:47;7.20;99.90
11188;DHT22;5650;52.700;7.306;2023-01-15T03:45:53;7.20;99.90
11188;DHT22;5650;52.700;7.306;2023-01-15T03:48:27;7.20;99.90
11188;DHT22;5650;52.700;7.306;2023-01-15T03:51:04;7.20;99.90
11188;DHT22;5650;52.700;7.306;2023-01-15T03:53:48;7.20;99.90
11188;DHT22;5650;52.700;7.306;2023-01-15T03:56:17;7.10;99.90
11188;DHT22;5650;52.700;7.306;2023-01-15T03:58:56;7.10;99.90
11188;DHT22;5650;52.700;7.306;2023-01-15T04:01:29;7.10;99.90
11188;DHT22;5650;52.700;7.306;2023-01-15T04:04:01;7.10;99.90
11188;DHT22;5650;52.700;7.306;2023-01-15T04:06:32;7.10;99.90
11188;DHT22;5650;52.700;7.306;2023-01-15T04:09:02;7.10;99.90
11188;DHT22;5650;52.700;7.306;2023-01-15T04:11:30;7.10;99.90
11188;DHT22;5650;52.700;7.306;2023-01-15T04:14:00;7.10;99.90
11188;DHT22;5650;52.700;7.306;2023-01-15T04:16:32;7.10;99.90
11188;DHT22;5650;52.700;7.306;2023-01-15T04:19:06;7.10;99.90
11188;DHT22;5650;52.700;7.306;2023-01-15T04:21:36;7.10;99.90
11188;DHT22;5650;52.700;7.306;2023-01-15T04:24:04;7.00;99.90
11188;DHT22;5650;52.700;7.306;2023-01-15T04:26:31;7.00;99.90
11188;DHT22;5650;52.700;7.306;2023-01-15T04:29:10;7.00;99.90
11188;DHT22;5650;52.700;7.306;2023-01-15T04:31:42;7.00;99.90
11188;DHT22;5650;52.700;7.306;2023-01-15T04:34:09;7.00;99.90
11188;DHT22;5650;52.700;7.306;2023-01-15T04:36:36;7.00;99.90
11188;DHT22;5650;52.700;7.306;2023-01-15T04:39:04;7.00;99.90
11188;DHT22;5650;52.700;7.306;2023-01-15T04:41:40;7.00;99.90
11188;DHT22;5650;52.700;7.306;2023-01-15T04:44:24;7.00;99.90
11188;DHT22;5650;52.700;7.306;2023-01-15T04:46:55;6.90;99.90
11188;DHT22;5650;52.700;7.306;2023-01-15T04:49:27;6.90;99.90
11188;DHT22;5650;52.700;7.306;2023-01-15T04:51:57;6.90;99.90
11188;DHT22;5650;52.700;7.306;2023-01-15T04:54:25;6.90;99.90
11188;DHT22;5650;52.700;7.306;2023-01-15T04:56:55;6.90;99.90
11188;DHT22;5650;52.700;7.306;2023-01-15T04:59:26;6.90;99.90
11188;DHT22;5650;52.700;7.306;2023-01-15T05:01:55;6.90;99.90
11188;DHT22;5650;52.700;7.306;2023-01-15T05:04:22;6.90;99.90
11188;DHT22;5650;52.700;7.306;2023-01-15T05:06:52;6.90;99.90
11188;DHT22;5650;52.700;7.306;2023-01-15T05:09:28;6.90;99.90
11188;DHT22;5650;52.700;7.306;2023-01-15T05:12:05;6.90;99.90
11188;DHT22;5650;52.700;7.306;2023-01-15T05:14:32;6.90;99.90
11188;DHT22;5650;52.700;7.306;2023-01-15T05:17:00;6.90;99.90
11188;DHT22;5650;52.700;7.306;2023-01-15T05:19:34;6.90;99.90
11188;DHT22;5650;52.700;7.306;2023-01-15T05:22:04;6.80;99.90
11188;DHT22;5650;52.700;7.306;2023-01-15T05:24:37;6.80;99.90
11188;DHT22;5650;52.700;7.306;2023-01-15T05:27:04;6.80;99.90
11188;DHT22;5650;52.700;7.306;2023-01-15T05:29:34;6.80;99.90
11188;DHT22;5650;52.700;7.306;2023-01-15T05:32:13;6.80;99.90
11188;DHT22;5650;52.700;7.306;2023-01-15T05:34:43;6.80;99.90
11188;DHT22;5650;52.700;7.306;2023-01-15T05:37:18;6.80;99.90
11188;DHT22;5650;52.700;7.306;2023-01-15T05:39:45;6.70;99.90
11188;DHT22;5650;52.700;7.306;2023-01-15T05:42:18;6.70;99.90
11188;DHT22;5650;52.700;7.306;2023-01-15T05:44:45;6.70;99.90
11188;DHT22;5650;52.700;7.306;2023-01-15T05:47:17;6.60;99.90
11188;DHT22;5650;52.700;7.306;2023-01-15T05:49:56;6.60;99.90
11188;DHT22;5650;52.700;7.306;2023-01-15T05:52:23;6.60;99.90
11188;DHT22;5650;52.700;7.306;2023-01-15T05:54:50;6.60;99.90
11188;DHT22;5650;52.700;7.306;2023-01-15T05:57:17;6.60;99.90
11188;DHT22;5650;52.700;7.306;2023-01-15T05:59:44;6.60;99.90
11188;DHT22;5650;52.700;7.306;2023-01-15T06:02:19;6.60;99.90
11188;DHT22;5650;52.700;7.306;2023-01-15T06:04:46;6.60;99.90
11188;DHT22;5650;52.700;7.306;2023-01-15T06:07:13;6.50;99.90
11188;DHT22;5650;52.700;7.306;2023-01-15T06:09:50;6.50;99.90
11188;DHT22;5650;52.700;7.306;2023-01-15T06:12:17;6.50;99.90
11188;DHT22;5650;52.700;7.306;2023-01-15T06:14:44;6.50;99.90
11188;DHT22;5650;52.700;7.306;2023-01-15T06:17:22;6.50;99.90
11188;DHT22;5650;52.700;7.306;2023-01-15T06:19:49;6.40;99.90
11188;DHT22;5650;52.700;7.306;2023-01-15T06:22:18;6.40;99.90
11188;DHT22;5650;52.700;7.306;2023-01-15T06:24:54;6.40;99.90
11188;DHT22;5650;52.700;7.306;2023-01-15T06:27:21;6.40;99.90
11188;DHT22;5650;52.700;7.306;2023-01-15T06:29:54;6.40;99.90
11188;DHT22;5650;52.700;7.306;2023-01-15T06:32:25;6.40;99.90
11188;DHT22;5650;52.700;7.306;2023-01-15T06:35:04;6.40;99.90
11188;DHT22;5650;52.700;7.306;2023-01-15T06:37:37;6.40;99.90
11188;DHT22;5650;52.700;7.306;2023-01-15T06:40:20;6.40;99.90
11188;DHT22;5650;52.700;7.306;2023-01-15T06:42:48;6.40;99.90
11188;DHT22;5650;52.700;7.306;2023-01-15T06:45:37;6.40;99.90
11188;DHT22;5650;52.700;7.306;2023-01-15T06:48:24;6.40;99.90
11188;DHT22;5650;52.700;7.306;2023-01-15T06:50:52;6.30;99.90
11188;DHT22;5650;52.700;7.306;2023-01-15T06:53:19;6.30;99.90
11188;DHT22;5650;52.700;7.306;2023-01-15T06:55:47;6.30;99.90
11188;DHT22;5650;52.700;7.306;2023-01-15T06:58:14;6.30;99.90
11188;DHT22;5650;52.700;7.306;2023-01-15T07:00:47;6.30;99.90
11188;DHT22;5650;52.700;7.306;2023-01-15T07:03:24;6.30;99.90
11188;DHT22;5650;52.700;7.306;2023-01-15T07:05:58;6.30;99.90
11188;DHT22;5650;52.700;7.306;2023-01-15T07:08:31;6.20;99.90
11188;DHT22;5650;52.700;7.306;2023-01-15T07:11:01;6.20;99.90
11188;DHT22;5650;52.700;7.306;2023-01-15T07:13:29;6.20;99.90
11188;DHT22;5650;52.700;7.306;2023-01-15T07:16:03;6.10;99.90
11188;DHT22;5650;52.700;7.306;2023-01-15T07:18:53;6.10;99.90
11188;DHT22;5650;52.700;7.306;2023-01-15T07:21:21;6.10;99.90
11188;DHT22;5650;52.700;7.306;2023-01-15T07:23:48;6.00;99.90
11188;DHT22;5650;52.700;7.306;2023-01-15T07:26:15;6.00;99.90
11188;DHT22;5650;52.700;7.306;2023-01-15T07:28:42;6.00;99.90
11188;DHT22;5650;52.700;7.306;2023-01-15T07:31:10;6.00;99.90
11188;DHT22;5650;52.700;7.306;2023-01-15T07:33:37;5.90;99.90
11188;DHT22;5650;52.700;7.306;2023-01-15T07:36:14;5.90;99.90
11188;DHT22;5650;52.700;7.306;2023-01-15T07:38:44;5.90;99.90
11188;DHT22;5650;52.700;7.306;2023-01-15T07:41:12;5.90;99.90
11188;DHT22;5650;52.700;7.306;2023-01-15T07:43:56;5.90;99.90
11188;DHT22;5650;52.700;7.306;2023-01-15T07:46:40;5.90;99.90
11188;DHT22;5650;52.700;7.306;2023-01-15T07:49:24;5.90;99.90
11188;DHT22;5650;52.700;7.306;2023-01-15T07:52:17;5.80;99.90
11188;DHT22;5650;52.700;7.306;2023-01-15T07:54:46;5.80;99.90
11188;DHT22;5650;52.700;7.306;2023-01-15T07:57:15;5.90;99.90
11188;DHT22;5650;52.700;7.306;2023-01-15T07:59:44;5.90;99.90
11188;DHT22;5650;52.700;7.306;2023-01-15T08:02:14;5.90;99.90
11188;DHT22;5650;52.700;7.306;2023-01-15T08:04:41;5.90;99.90
11188;DHT22;5650;52.700;7.306;2023-01-15T08:07:09;5.90;99.90
11188;DHT22;5650;52.700;7.306;2023-01-15T08:09:39;5.90;99.90
11188;DHT22;5650;52.700;7.306;2023-01-15T08:12:06;5.90;99.90
11188;DHT22;5650;52.700;7.306;2023-01-15T08:14:51;5.90;99.90
11188;DHT22;5650;52.700;7.306;2023-01-15T08:17:35;5.90;99.90
11188;DHT22;5650;52.700;7.306;2023-01-15T08:20:04;5.90;99.90
11188;DHT22;5650;52.700;7.306;2023-01-15T08:22:31;5.90;99.90
11188;DHT22;5650;52.700;7.306;2023-01-15T08:25:00;5.90;99.90
11188;DHT22;5650;52.700;7.306;2023-01-15T08:27:27;5.90;99.90
11188;DHT22;5650;52.700;7.306;2023-01-15T08:29:55;5.90;99.90
11188;DHT22;5650;52.700;7.306;2023-01-15T08:32:23;5.90;99.90
11188;DHT22;5650;52.700;7.306;2023-01-15T08:34:50;5.90;99.90
11188;DHT22;5650;52.700;7.306;2023-01-15T08:37:18;5.90;99.90
11188;DHT22;5650;52.700;7.306;2023-01-15T08:39:45;5.90;99.90
11188;DHT22;5650;52.700;7.306;2023-01-15T08:42:13;6.00;99.90
11188;DHT22;5650;52.700;7.306;2023-01-15T08:44:41;6.00;99.90
11188;DHT22;5650;52.700;7.306;2023-01-15T08:47:08;6.00;99.90
11188;DHT22;5650;52.700;7.306;2023-01-15T08:49:35;6.00;99.90
11188;DHT22;5650;52.700;7.306;2023-01-15T08:52:03;6.00;99.90
11188;DHT22;5650;52.700;7.306;2023-01-15T08:54:31;6.00;99.90
11188;DHT22;5650;52.700;7.306;2023-01-15T08:56:58;6.10;99.90
11188;DHT22;5650;52.700;7.306;2023-01-15T08:59:27;6.10;99.90
11188;DHT22;5650;52.700;7.306;2023-01-15T09:01:54;6.10;99.90
11188;DHT22;5650;52.700;7.306;2023-01-15T09:04:22;6.20;99.90
11188;DHT22;5650;52.700;7.306;2023-01-15T09:06:49;6.20;99.90
11188;DHT22;5650;52.700;7.306;2023-01-15T09:09:16;6.20;99.90
11188;DHT22;5650;52.700;7.306;2023-01-15T09:11:46;6.20;99.90
11188;DHT22;5650;52.700;7.306;2023-01-15T09:17:37;6.20;99.90
11188;DHT22;5650;52.700;7.306;2023-01-15T09:20:11;6.30;99.90
11188;DHT22;5650;52.700;7.306;2023-01-15T09:22:44;6.30;99.90
11188;DHT22;5650;52.700;7.306;2023-01-15T09:25:11;6.40;99.90
11188;DHT22;5650;52.700;7.306;2023-01-15T09:27:38;6.40;99.90
11188;DHT22;5650;52.700;7.306;2023-01-15T09:30:16;6.50;99.90
11188;DHT22;5650;52.700;7.306;2023-01-15T09:32:49;6.60;99.90
11188;DHT22;5650;52.700;7.306;2023-01-15T09:35:16;6.60;99.90
11188;DHT22;5650;52.700;7.306;2023-01-15T09:37:43;6.70;99.90
11188;DHT22;5650;52.700;7.306;2023-01-15T09:40:39;6.80;99.90
11188;DHT22;5650;52.700;7.306;2023-01-15T09:43:26;7.00;99.90
11188;DHT22;5650;52.700;7.306;2023-01-15T09:46:11;7.10;99.90
11188;DHT22;5650;52.700;7.306;2023-01-15T09:48:51;7.10;99.90
11188;DHT22;5650;52.700;7.306;2023-01-15T09:51:41;7.20;99.90
11188;DHT22;5650;52.700;7.306;2023-01-15T09:54:41;7.20;99.90
11188;DHT22;5650;52.700;7.306;2023-01-15T09:57:11;7.30;99.90
11188;DHT22;5650;52.700;7.306;2023-01-15T09:59:44;7.20;99.90
11188;DHT22;5650;52.700;7.306;2023-01-15T10:02:26;7.20;99.90
11188;DHT22;5650;52.700;7.306;2023-01-15T10:05:12;7.20;99.90
11188;DHT22;5650;52.700;7.306;2023-01-15T10:07:45;7.20;99.90
11188;DHT22;5650;52.700;7.306;2023-01-15T10:10:23;7.10;99.90
11188;DHT22;5650;52.700;7.306;2023-01-15T10:12:56;7.00;99.90
11188;DHT22;5650;52.700;7.306;2023-01-15T10:15:33;6.90;99.90
11188;DHT22;5650;52.700;7.306;2023-01-15T10:18:05;6.80;99.90
11188;DHT22;5650;52.700;7.306;2023-01-15T10:21:02;6.80;99.90
11188;DHT22;5650;52.700;7.306;2023-01-15T10:23:43;6.80;99.90
11188;DHT22;5650;52.700;7.306;2023-01-15T10:26:29;6.70;99.90
11188;DHT22;5650;52.700;7.306;2023-01-15T10:28:59;6.70;99.90
11188;DHT22;5650;52.700;7.306;2023-01-15T10:31:51;6.70;99.90
11188;DHT22;5650;52.700;7.306;2023-01-15T10:34:55;6.60;99.90
11188;DHT22;5650;52.700;7.306;2023-01-15T10:37:40;6.50;99.90
11188;DHT22;5650;52.700;7.306;2023-01-15T10:40:33;6.40;99.90
11188;DHT22;5650;52.700;7.306;2023-01-15T10:43:14;6.30;99.90
11188;DHT22;5650;52.700;7.306;2023-01-15T10:45:47;6.30;99.90
11188;DHT22;5650;52.700;7.306;2023-01-15T10:48:25;6.20;99.90
11188;DHT22;5650;52.700;7.306;2023-01-15T10:51:14;6.20;99.90
11188;DHT22;5650;52.700;7.306;2023-01-15T10:53:49;6.20;99.90
11188;DHT22;5650;52.700;7.306;2023-01-15T10:56:26;6.20;99.90
11188;DHT22;5650;52.700;7.306;2023-01-15T10:58:57;6.20;99.90
11188;DHT22;5650;52.700;7.306;2023-01-15T11:01:30;6.40;99.90
11188;DHT22;5650;52.700;7.306;2023-01-15T11:04:00;6.50;99.90
11188;DHT22;5650;52.700;7.306;2023-01-15T11:06:30;6.60;99.90
11188;DHT22;5650;52.700;7.306;2023-01-15T11:09:14;6.80;99.90
11188;DHT22;5650;52.700;7.306;2023-01-15T11:11:45;6.80;99.90
11188;DHT22;5650;52.700;7.306;2023-01-15T11:14:32;7.00;99.90
11188;DHT22;5650;52.700;7.306;2023-01-15T11:17:17;7.00;99.90
11188;DHT22;5650;52.700;7.306;2023-01-15T11:20:19;7.10;99.90
11188;DHT22;5650;52.700;7.306;2023-01-15T11:22:49;7.10;99.90
11188;DHT22;5650;52.700;7.306;2023-01-15T11:25:27;7.20;99.90
11188;DHT22;5650;52.700;7.306;2023-01-15T11:27:59;7.30;99.90
11188;DHT22;5650;52.700;7.306;2023-01-15T11:30:29;7.30;99.90
11188;DHT22;5650;52.700;7.306;2023-01-15T11:32:59;7.30;99.90
11188;DHT22;5650;52.700;7.306;2023-01-15T11:35:29;7.20;99.90
11188;DHT22;5650;52.700;7.306;2023-01-15T11:38:04;7.30;99.90
11188;DHT22;5650;52.700;7.306;2023-01-15T11:40:33;7.20;99.90
11188;DHT22;5650;52.700;7.306;2023-01-15T11:43:00;7.10;99.90
11188;DHT22;5650;52.700;7.306;2023-01-15T11:45:51;7.00;99.90
11188;DHT22;5650;52.700;7.306;2023-01-15T11:48:43;7.00;99.90
11188;DHT22;5650;52.700;7.306;2023-01-15T11:51:29;7.10;99.90
11188;DHT22;5650;52.700;7.306;2023-01-15T11:54:03;7.10;99.90
11188;DHT22;5650;52.700;7.306;2023-01-15T11:56:34;7.10;99.90
11188;DHT22;5650;52.700;7.306;2023-01-15T11:59:03;7.10;99.90
11188;DHT22;5650;52.700;7.306;2023-01-15T12:01:46;7.10;99.90
11188;DHT22;5650;52.700;7.306;2023-01-15T12:04:35;7.00;99.90
11188;DHT22;5650;52.700;7.306;2023-01-15T12:07:13;7.00;99.90
11188;DHT22;5650;52.700;7.306;2023-01-15T12:10:08;7.00;99.90
11188;DHT22;5650;52.700;7.306;2023-01-15T12:12:54;7.10;99.90
11188;DHT22;5650;52.700;7.306;2023-01-15T12:15:42;7.10;99.90
11188;DHT22;5650;52.700;7.306;2023-01-15T12:18:54;7.20;99.90
11188;DHT22;5650;52.700;7.306;2023-01-15T12:21:52;7.30;99.90
11188;DHT22;5650;52.700;7.306;2023-01-15T12:24:40;7.40;99.90
11188;DHT22;5650;52.700;7.306;2023-01-15T12:30:15;7.60;99.90
11188;DHT22;5650;52.700;7.306;2023-01-15T12:32:51;7.60;99.90
11188;DHT22;5650;52.700;7.306;2023-01-15T12:35:36;7.60;99.90
11188;DHT22;5650;52.700;7.306;2023-01-15T12:38:14;7.60;99.90
11188;DHT22;5650;52.700;7.306;2023-01-15T12:40:48;7.60;99.90
11188;DHT22;5650;52.700;7.306;2023-01-15T12:43:23;7.60;99.90
11188;DHT22;5650;52.700;7.306;2023-01-15T12:46:23;7.60;99.90
11188;DHT22;5650;52.700;7.306;2023-01-15T12:48:57;7.70;99.90
11188;DHT22;5650;52.700;7.306;2023-01-15T12:51:35;7.70;99.90
11188;DHT22;5650;52.700;7.306;2023-01-15T12:54:09;7.70;99.90
11188;DHT22;5650;52.700;7.306;2023-01-15T12:56:46;7.70;99.90
11188;DHT22;5650;52.700;7.306;2023-01-15T12:59:17;7.70;99.90
11188;DHT22;5650;52.700;7.306;2023-01-15T13:01:55;7.80;99.90
11188;DHT22;5650;52.700;7.306;2023-01-15T13:04:36;7.80;99.90
11188;DHT22;5650;52.700;7.306;2023-01-15T13:07:16;7.70;99.90
11188;DHT22;5650;52.700;7.306;2023-01-15T13:09:51;7.80;99.90
11188;DHT22;5650;52.700;7.306;2023-01-15T13:12:19;7.70;99.90
11188;DHT22;5650;52.700;7.306;2023-01-15T13:14:46;7.70;99.90
11188;DHT22;5650;52.700;7.306;2023-01-15T13:17:26;7.80;99.90
11188;DHT22;5650;52.700;7.306;2023-01-15T13:20:22;7.80;99.90
11188;DHT22;5650;52.700;7.306;2023-01-15T13:22:58;7.80;99.90
11188;DHT22;5650;52.700;7.306;2023-01-15T13:25:53;7.80;99.90
11188;DHT22;5650;52.700;7.306;2023-01-15T13:28:39;7.80;99.90
11188;DHT22;5650;52.700;7.306;2023-01-15T13:31:31;7.70;99.90
11188;DHT22;5650;52.700;7.306;2023-01-15T13:34:07;7.80;99.90
11188;DHT22;5650;52.700;7.306;2023-01-15T13:36:39;7.70;99.90
11188;DHT22;5650;52.700;7.306;2023-01-15T13:39:16;7.70;99.90
11188;DHT22;5650;52.700;7.306;2023-01-15T13:41:47;7.70;99.90
11188;DHT22;5650;52.700;7.306;2023-01-15T13:44:36;7.70;99.90
11188;DHT22;5650;52.700;7.306;2023-01-15T13:47:13;7.70;99.90
11188;DHT22;5650;52.700;7.306;2023-01-15T13:49:48;7.70;99.90
11188;DHT22;5650;52.700;7.306;2023-01-15T13:52:22;7.70;99.90
11188;DHT22;5650;52.700;7.306;2023-01-15T13:54:51;7.70;99.90
11188;DHT22;5650;52.700;7.306;2023-01-15T13:57:24;7.70;99.90
11188;DHT22;5650;52.700;7.306;2023-01-15T13:59:57;7.70;99.90
11188;DHT22;5650;52.700;7.306;2023-01-15T14:02:29;7.70;99.90
11188;DHT22;5650;52.700;7.306;2023-01-15T14:04:59;7.70;99.90
11188;DHT22;5650;52.700;7.306;2023-01-15T14:07:42;7.60;99.90
11188;DHT22;5650;52.700;7.306;2023-01-15T14:10:25;7.50;99.90
11188;DHT22;5650;52.700;7.306;2023-01-15T14:13:36;7.40;99.90
11188;DHT22;5650;52.700;7.306;2023-01-15T14:16:33;7.30;99.90
11188;DHT22;5650;52.700;7.306;2023-01-15T14:19:28;7.20;99.90
11188;DHT22;5650;52.700;7.306;2023-01-15T14:22:20;7.20;99.90
11188;DHT22;5650;52.700;7.306;2023-01-15T14:25:16;7.10;99.90
11188;DHT22;5650;52.700;7.306;2023-01-15T14:27:55;7.00;99.90
11188;DHT22;5650;52.700;7.306;2023-01-15T14:30:54;7.00;99.90
11188;DHT22;5650;52.700;7.306;2023-01-15T14:33:36;7.00;99.90
11188;DHT22;5650;52.700;7.306;2023-01-15T14:36:17;7.00;99.90
11188;DHT22;5650;52.700;7.306;2023-01-15T14:38:48;7.00;99.90
11188;DHT22;5650;52.700;7.306;2023-01-15T14:41:24;7.00;99.90
11188;DHT22;5650;52.700;7.306;2023-01-15T14:43:52;7.00;99.90
11188;DHT22;5650;52.700;7.306;2023-01-15T14:46:27;7.00;99.90
11188;DHT22;5650;52.700;7.306;2023-01-15T14:49:01;7.00;99.90
11188;DHT22;5650;52.700;7.306;2023-01-15T14:51:30;7.00;99.90
11188;DHT22;5650;52.700;7.306;2023-01-15T14:54:06;7.00;99.90
11188;DHT22;5650;52.700;7.306;2023-01-15T14:56:39;7.00;99.90
11188;DHT22;5650;52.700;7.306;2023-01-15T14:59:12;7.00;99.90
11188;DHT22;5650;52.700;7.306;2023-01-15T15:01:43;7.00;99.90
11188;DHT22;5650;52.700;7.306;2023-01-15T15:04:18;7.00;99.90
11188;DHT22;5650;52.700;7.306;2023-01-15T15:06:53;6.90;99.90
11188;DHT22;5650;52.700;7.306;2023-01-15T15:09:29;6.90;99.90
11188;DHT22;5650;52.700;7.306;2023-01-15T15:12:10;6.90;99.90
11188;DHT22;5650;52.700;7.306;2023-01-15T15:14:52;6.90;99.90
11188;DHT22;5650;52.700;7.306;2023-01-15T15:17:38;6.80;99.90
11188;DHT22;5650;52.700;7.306;2023-01-15T15:20:27;6.80;99.90
11188;DHT22;5650;52.700;7.306;2023-01-15T15:23:03;6.70;99.90
11188;DHT22;5650;52.700;7.306;2023-01-15T15:25:34;6.40;99.90
11188;DHT22;5650;52.700;7.306;2023-01-15T15:28:09;6.20;99.90
11188;DHT22;5650;52.700;7.306;2023-01-15T15:30:42;5.90;99.90
11188;DHT22;5650;52.700;7.306;2023-01-15T15:33:15;5.80;99.90
11188;DHT22;5650;52.700;7.306;2023-01-15T15:35:51;5.70;99.90
11188;DHT22;5650;52.700;7.306;2023-01-15T15:38:24;5.60;99.90
11188;DHT22;5650;52.700;7.306;2023-01-15T15:40:55;5.50;99.90
11188;DHT22;5650;52.700;7.306;2023-01-15T15:43:26;5.40;99.90
11188;DHT22;5650;52.700;7.306;2023-01-15T15:46:26;5.40;99.90
11188;DHT22;5650;52.700;7.306;2023-01-15T15:49:15;5.40;99.90
11188;DHT22;5650;52.700;7.306;2023-01-15T15:51:46;5.50;99.90
11188;DHT22;5650;52.700;7.306;2023-01-15T15:54:16;5.50;99.90
11188;DHT22;5650;52.700;7.306;2023-01-15T15:56:54;5.50;99.90
11188;DHT22;5650;52.700;7.306;2023-01-15T15:59:30;5.60;99.90
11188;DHT22;5650;52.700;7.306;2023-01-15T16:02:06;5.60;99.90
11188;DHT22;5650;52.700;7.306;2023-01-15T16:04:33;5.60;99.90
11188;DHT22;5650;52.700;7.306;2023-01-15T16:07:11;5.60;99.90
11188;DHT22;5650;52.700;7.306;2023-01-15T16:09:39;5.60;99.90
11188;DHT22;5650;52.700;7.306;2023-01-15T16:12:17;5.60;99.90
11188;DHT22;5650;52.700;7.306;2023-01-15T16:14:44;5.60;99.90
11188;DHT22;5650;52.700;7.306;2023-01-15T16:17:12;5.60;99.90
11188;DHT22;5650;52.700;7.306;2023-01-15T16:19:41;5.60;99.90
11188;DHT22;5650;52.700;7.306;2023-01-15T16:22:17;5.60;99.90
11188;DHT22;5650;52.700;7.306;2023-01-15T16:24:53;5.60;99.90
11188;DHT22;5650;52.700;7.306;2023-01-15T16:27:32;5.60;99.90
11188;DHT22;5650;52.700;7.306;2023-01-15T16:30:00;5.60;99.90
11188;DHT22;5650;52.700;7.306;2023-01-15T16:32:32;5.60;99.90
11188;DHT22;5650;52.700;7.306;2023-01-15T16:35:05;5.60;99.90
11188;DHT22;5650;52.700;7.306;2023-01-15T16:37:38;5.60;99.90
11188;DHT22;5650;52.700;7.306;2023-01-15T16:40:07;5.60;99.90
11188;DHT22;5650;52.700;7.306;2023-01-15T16:42:37;5.60;99.90
11188;DHT22;5650;52.700;7.306;2023-01-15T16:45:20;5.60;99.90
11188;DHT22;5650;52.700;7.306;2023-01-15T16:48:01;5.60;99.90
11188;DHT22;5650;52.700;7.306;2023-01-15T16:50:36;5.70;99.90
11188;DHT22;5650;52.700;7.306;2023-01-15T16:53:05;5.70;99.90
11188;DHT22;5650;52.700;7.306;2023-01-15T16:55:37;5.70;99.90
11188;DHT22;5650;52.700;7.306;2023-01-15T16:58:39;5.70;99.90
11188;DHT22;5650;52.700;7.306;2023-01-15T17:01:33;5.70;99.90
11188;DHT22;5650;52.700;7.306;2023-01-15T17:04:17;5.80;99.90
11188;DHT22;5650;52.700;7.306;2023-01-15T17:06:53;5.80;99.90